sensor_id;sensor_type;location;lat;lon;timestamp;temperature;humidity
31619;DHT22;18230;51.502;7.108;2024-03-07T00:02:55;6.80;99.90
31619;DHT22;18230;51.502;7.108;2024-03-07T00:07:55;6.80;99.90
31619;DHT22;18230;51.502;7.108;2024-03-07T00:12:56;6.70;99.90
31619;DHT22;18230;51.502;7.108;2024-03-07T00:17:57;6.60;99.90
31619;DHT22;18230;51.502;7.108;2024-03-07T00:22:58;6.60;99.90
31619;DHT22;18230;51.502;7.108;2024-03-07T00:27:58;6.50;99.90
31619;DHT22;18230;51.502;7.108;2024-03-07T00:33:03;6.60;99.90
31619;DHT22;18230;51.502;7.108;2024-03-07T00:38:04;6.50;99.90
31619;DHT22;18230;51.502;7.108;2024-03-07T00:43:05;6.50;99.90
31619;DHT22;18230;51.502;7.108;2024-03-07T00:48:06;6.40;99.90
31619;DHT22;18230;51.502;7.108;2024-03-07T00:53:07;6.40;99.90
31619;DHT22;18230;51.502;7.108;2024-03-07T00:58:08;6.40;99.90
31619;DHT22;18230;51.502;7.108;2024-03-07T01:03:09;6.40;99.90
31619;DHT22;18230;51.502;7.108;2024-03-07T01:08:14;6.40;99.90
31619;DHT22;18230;51.502;7.108;2024-03-07T01:13:14;6.40;99.90
31619;DHT22;18230;51.502;7.108;2024-03-07T01:18:19;6.30;99.90
31619;DHT22;18230;51.502;7.108;2024-03-07T01:23:20;6.20;99.90
31619;DHT22;18230;51.502;7.108;2024-03-07T01:28:20;6.20;99.90
31619;DHT22;18230;51.502;7.108;2024-03-07T01:33:23;6.10;99.90
31619;DHT22;18230;51.502;7.108;2024-03-07T01:38:24;6.10;99.90
31619;DHT22;18230;51.502;7.108;2024-03-07T01:43:25;6.10;99.90
31619;DHT22;18230;51.502;7.108;2024-03-07T01:48:28;6.00;99.90
31619;DHT22;18230;51.502;7.108;2024-03-07T01:53:33;5.90;99.90
31619;DHT22;18230;51.502;7.108;2024-03-07T01:58:35;5.80;99.90
31619;DHT22;18230;51.502;7.108;2024-03-07T02:03:36;5.70;99.90
31619;DHT22;18230;51.502;7.108;2024-03-07T02:08:38;5.60;99.90
31619;DHT22;18230;51.502;7.108;2024-03-07T02:13:39;5.50;99.90
31619;DHT22;18230;51.502;7.108;2024-03-07T02:18:39;5.50;99.90
31619;DHT22;18230;51.502;7.108;2024-03-07T02:23:40;5.60;99.90
31619;DHT22;18230;51.502;7.108;2024-03-07T02:28:41;5.40;99.90
31619;DHT22;18230;51.502;7.108;2024-03-07T02:33:42;5.30;99.90
31619;DHT22;18230;51.502;7.108;2024-03-07T02:38:42;5.20;99.90
31619;DHT22;18230;51.502;7.108;2024-03-07T02:43:43;5.10;99.90
31619;DHT22;18230;51.502;7.108;2024-03-07T02:48:44;5.20;99.90
31619;DHT22;18230;51.502;7.108;2024-03-07T02:53:44;5.20;99.90
31619;DHT22;18230;51.502;7.108;2024-03-07T02:58:45;5.20;99.90
31619;DHT22;18230;51.502;7.108;2024-03-07T03:03:46;5.20;99.90
31619;DHT22;18230;51.502;7.108;2024-03-07T03:08:49;5.20;99.90
31619;DHT22;18230;51.502;7.108;2024-03-07T03:13:50;5.20;99.90
31619;DHT22;18230;51.502;7.108;2024-03-07T03:18:51;5.20;99.90
31619;DHT22;18230;51.502;7.108;2024-03-07T03:23:52;5.10;99.90
31619;DHT22;18230;51.502;7.108;2024-03-07T03:28:55;5.10;99.90
31619;DHT22;18230;51.502;7.108;2024-03-07T03:33:55;5.00;99.90
31619;DHT22;18230;51.502;7.108;2024-03-07T03:38:56;5.00;99.90
31619;DHT22;18230;51.502;7.108;2024-03-07T03:43:57;5.00;99.90
31619;DHT22;18230;51.502;7.108;2024-03-07T03:48:58;4.90;99.90
31619;DHT22;18230;51.502;7.108;2024-03-07T03:54:00;4.70;99.90
31619;DHT22;18230;51.502;7.108;2024-03-07T03:59:01;4.60;99.90
31619;DHT22;18230;51.502;7.108;2024-03-07T04:04:01;4.50;99.90
31619;DHT22;18230;51.502;7.108;2024-03-07T04:09:02;4.30;99.90
31619;DHT22;18230;51.502;7.108;2024-03-07T04:14:05;4.20;99.90
31619;DHT22;18230;51.502;7.108;2024-03-07T04:19:05;4.10;99.90
31619;DHT22;18230;51.502;7.108;2024-03-07T04:24:07;4.10;99.90
31619;DHT22;18230;51.502;7.108;2024-03-07T04:29:08;4.20;99.90
31619;DHT22;18230;51.502;7.108;2024-03-07T04:34:09;4.10;99.90
31619;DHT22;18230;51.502;7.108;2024-03-07T04:39:09;4.20;99.90
31619;DHT22;18230;51.502;7.108;2024-03-07T04:44:22;4.20;99.90
31619;DHT22;18230;51.502;7.108;2024-03-07T04:49:24;4.40;99.90
31619;DHT22;18230;51.502;7.108;2024-03-07T04:54:26;4.30;99.90
31619;DHT22;18230;51.502;7.108;2024-03-07T04:59:26;4.30;99.90
31619;DHT22;18230;51.502;7.108;2024-03-07T05:04:27;4.20;99.90
31619;DHT22;18230;51.502;7.108;2024-03-07T05:09:29;4.30;99.90
31619;DHT22;18230;51.502;7.108;2024-03-07T05:14:30;4.30;99.90
31619;DHT22;18230;51.502;7.108;2024-03-07T05:19:32;4.30;99.90
31619;DHT22;18230;51.502;7.108;2024-03-07T05:24:33;4.30;99.90
31619;DHT22;18230;51.502;7.108;2024-03-07T05:29:37;4.30;99.90
31619;DHT22;18230;51.502;7.108;2024-03-07T05:34:38;4.30;99.90
31619;DHT22;18230;51.502;7.108;2024-03-07T05:39:41;4.20;99.90
31619;DHT22;18230;51.502;7.108;2024-03-07T05:44:42;4.30;99.90
31619;DHT22;18230;51.502;7.108;2024-03-07T05:49:43;4.30;99.90
31619;DHT22;18230;51.502;7.108;2024-03-07T05:54:43;4.30;99.90
31619;DHT22;18230;51.502;7.108;2024-03-07T05:59:44;4.20;99.90
31619;DHT22;18230;51.502;7.108;2024-03-07T06:04:46;4.30;99.90
31619;DHT22;18230;51.502;7.108;2024-03-07T06:09:48;4.20;99.90
31619;DHT22;18230;51.502;7.108;2024-03-07T06:14:48;4.10;99.90
31619;DHT22;18230;51.502;7.108;2024-03-07T06:19:49;4.10;99.90
31619;DHT22;18230;51.502;7.108;2024-03-07T06:24:50;4.10;99.90
31619;DHT22;18230;51.502;7.108;2024-03-07T06:29:50;4.10;99.90
31619;DHT22;18230;51.502;7.108;2024-03-07T06:34:51;4.10;99.90
31619;DHT22;18230;51.502;7.108;2024-03-07T06:39:52;4.00;99.90
31619;DHT22;18230;51.502;7.108;2024-03-07T06:44:53;4.00;99.90
31619;DHT22;18230;51.502;7.108;2024-03-07T06:49:54;4.10;99.90
31619;DHT22;18230;51.502;7.108;2024-03-07T06:54:55;4.30;99.90
31619;DHT22;18230;51.502;7.108;2024-03-07T06:59:57;4.70;99.90
31619;DHT22;18230;51.502;7.108;2024-03-07T07:04:57;4.90;99.90
31619;DHT22;18230;51.502;7.108;2024-03-07T07:09:58;4.80;99.90
31619;DHT22;18230;51.502;7.108;2024-03-07T07:14:59;4.80;99.90
31619;DHT22;18230;51.502;7.108;2024-03-07T07:19:59;4.80;99.90
31619;DHT22;18230;51.502;7.108;2024-03-07T07:25:00;4.90;99.90
31619;DHT22;18230;51.502;7.108;2024-03-07T07:30:00;4.90;99.90
31619;DHT22;18230;51.502;7.108;2024-03-07T07:35:01;5.10;99.90
31619;DHT22;18230;51.502;7.108;2024-03-07T07:40:03;5.20;99.90
31619;DHT22;18230;51.502;7.108;2024-03-07T07:45:05;5.30;99.90
31619;DHT22;18230;51.502;7.108;2024-03-07T07:50:08;5.50;99.90
31619;DHT22;18230;51.502;7.108;2024-03-07T07:55:13;5.50;99.90
31619;DHT22;18230;51.502;7.108;2024-03-07T08:00:18;5.70;99.90
31619;DHT22;18230;51.502;7.108;2024-03-07T08:05:25;5.90;99.90
31619;DHT22;18230;51.502;7.108;2024-03-07T08:10:28;6.00;99.90
31619;DHT22;18230;51.502;7.108;2024-03-07T08:15:30;6.10;99.90
31619;DHT22;18230;51.502;7.108;2024-03-07T08:20:31;6.30;99.90
31619;DHT22;18230;51.502;7.108;2024-03-07T08:25:32;6.40;99.90
31619;DHT22;18230;51.502;7.108;2024-03-07T08:30:33;6.70;99.90
31619;DHT22;18230;51.502;7.108;2024-03-07T08:35:35;7.00;99.90
31619;DHT22;18230;51.502;7.108;2024-03-07T08:40:35;7.30;99.90
31619;DHT22;18230;51.502;7.108;2024-03-07T08:45:36;7.50;99.90
31619;DHT22;18230;51.502;7.108;2024-03-07T08:50:42;7.40;99.90
31619;DHT22;18230;51.502;7.108;2024-03-07T08:55:43;7.40;99.90
31619;DHT22;18230;51.502;7.108;2024-03-07T09:00:44;7.20;99.90
31619;DHT22;18230;51.502;7.108;2024-03-07T09:05:46;7.10;99.90
31619;DHT22;18230;51.502;7.108;2024-03-07T09:10:47;6.90;99.90
31619;DHT22;18230;51.502;7.108;2024-03-07T09:15:47;6.70;99.90
31619;DHT22;18230;51.502;7.108;2024-03-07T09:20:48;6.90;99.90
31619;DHT22;18230;51.502;7.108;2024-03-07T09:25:49;6.80;99.90
31619;DHT22;18230;51.502;7.108;2024-03-07T09:30:49;6.80;99.90
31619;DHT22;18230;51.502;7.108;2024-03-07T09:35:51;6.90;99.90
31619;DHT22;18230;51.502;7.108;2024-03-07T09:40:53;7.00;99.90
31619;DHT22;18230;51.502;7.108;2024-03-07T09:45:55;7.00;99.90
31619;DHT22;18230;51.502;7.108;2024-03-07T09:50:58;7.20;99.90
31619;DHT22;18230;51.502;7.108;2024-03-07T09:56:00;7.40;99.90
31619;DHT22;18230;51.502;7.108;2024-03-07T10:01:02;7.50;99.90
31619;DHT22;18230;51.502;7.108;2024-03-07T10:06:04;7.70;99.90
31619;DHT22;18230;51.502;7.108;2024-03-07T10:11:05;7.80;99.90
31619;DHT22;18230;51.502;7.108;2024-03-07T10:16:05;7.80;99.90
31619;DHT22;18230;51.502;7.108;2024-03-07T10:21:06;7.90;99.90
31619;DHT22;18230;51.502;7.108;2024-03-07T10:26:07;8.10;99.90
31619;DHT22;18230;51.502;7.108;2024-03-07T10:31:08;8.10;99.90
31619;DHT22;18230;51.502;7.108;2024-03-07T10:36:11;8.00;99.90
31619;DHT22;18230;51.502;7.108;2024-03-07T10:41:14;8.20;99.90
31619;DHT22;18230;51.502;7.108;2024-03-07T10:46:17;8.40;99.90
31619;DHT22;18230;51.502;7.108;2024-03-07T10:51:35;8.40;99.90
31619;DHT22;18230;51.502;7.108;2024-03-07T11:07:16;8.50;99.90
31619;DHT22;18230;51.502;7.108;2024-03-07T11:12:22;8.70;99.90
31619;DHT22;18230;51.502;7.108;2024-03-07T11:17:23;8.90;99.90
31619;DHT22;18230;51.502;7.108;2024-03-07T11:22:31;9.20;99.90
31619;DHT22;18230;51.502;7.108;2024-03-07T11:27:36;9.10;99.90
31619;DHT22;18230;51.502;7.108;2024-03-07T11:32:39;9.20;99.90
31619;DHT22;18230;51.502;7.108;2024-03-07T11:37:44;9.20;99.90
31619;DHT22;18230;51.502;7.108;2024-03-07T11:42:48;9.20;99.90
31619;DHT22;18230;51.502;7.108;2024-03-07T11:47:49;9.30;99.90
31619;DHT22;18230;51.502;7.108;2024-03-07T11:52:49;9.20;99.90
31619;DHT22;18230;51.502;7.108;2024-03-07T11:57:51;9.30;99.90
31619;DHT22;18230;51.502;7.108;2024-03-07T12:02:54;9.50;99.90
31619;DHT22;18230;51.502;7.108;2024-03-07T12:07:56;9.70;99.90
31619;DHT22;18230;51.502;7.108;2024-03-07T12:12:57;9.60;99.90
31619;DHT22;18230;51.502;7.108;2024-03-07T12:17:58;9.70;99.90
31619;DHT22;18230;51.502;7.108;2024-03-07T12:23:02;9.90;99.90
31619;DHT22;18230;51.502;7.108;2024-03-07T12:28:06;10.10;99.90
31619;DHT22;18230;51.502;7.108;2024-03-07T12:33:06;9.80;99.90
31619;DHT22;18230;51.502;7.108;2024-03-07T12:38:11;9.60;99.90
31619;DHT22;18230;51.502;7.108;2024-03-07T12:43:20;9.50;99.90
31619;DHT22;18230;51.502;7.108;2024-03-07T12:48:21;9.40;99.90
31619;DHT22;18230;51.502;7.108;2024-03-07T12:53:22;9.40;99.90
31619;DHT22;18230;51.502;7.108;2024-03-07T12:58:24;9.50;99.90
31619;DHT22;18230;51.502;7.108;2024-03-07T13:03:26;9.60;99.90
31619;DHT22;18230;51.502;7.108;2024-03-07T13:08:30;9.80;99.90
31619;DHT22;18230;51.502;7.108;2024-03-07T13:13:31;9.70;99.90
31619;DHT22;18230;51.502;7.108;2024-03-07T13:18:31;9.70;99.90
31619;DHT22;18230;51.502;7.108;2024-03-07T13:23:34;9.90;99.90
31619;DHT22;18230;51.502;7.108;2024-03-07T13:28:34;10.00;99.90
31619;DHT22;18230;51.502;7.108;2024-03-07T13:33:35;10.10;99.90
31619;DHT22;18230;51.502;7.108;2024-03-07T13:38:37;10.10;99.90
31619;DHT22;18230;51.502;7.108;2024-03-07T13:43:38;10.00;99.90
31619;DHT22;18230;51.502;7.108;2024-03-07T13:48:39;10.10;99.90
31619;DHT22;18230;51.502;7.108;2024-03-07T13:53:43;10.10;99.90
31619;DHT22;18230;51.502;7.108;2024-03-07T14:25:31;10.40;99.90
31619;DHT22;18230;51.502;7.108;2024-03-07T14:36:04;10.30;99.90
31619;DHT22;18230;51.502;7.108;2024-03-07T14:41:05;10.40;99.90
31619;DHT22;18230;51.502;7.108;2024-03-07T14:46:13;10.40;99.90
31619;DHT22;18230;51.502;7.108;2024-03-07T14:51:14;10.50;99.90
31619;DHT22;18230;51.502;7.108;2024-03-07T14:56:15;10.90;99.90
31619;DHT22;18230;51.502;7.108;2024-03-07T15:01:15;11.00;99.90
31619;DHT22;18230;51.502;7.108;2024-03-07T15:06:16;10.60;99.90
31619;DHT22;18230;51.502;7.108;2024-03-07T15:11:23;10.60;99.90
31619;DHT22;18230;51.502;7.108;2024-03-07T15:16:30;10.50;99.90
31619;DHT22;18230;51.502;7.108;2024-03-07T15:21:36;10.40;99.90
31619;DHT22;18230;51.502;7.108;2024-03-07T15:26:37;10.30;99.90
31619;DHT22;18230;51.502;7.108;2024-03-07T15:31:39;10.10;99.90
31619;DHT22;18230;51.502;7.108;2024-03-07T15:36:40;10.10;99.90
31619;DHT22;18230;51.502;7.108;2024-03-07T15:41:41;10.10;99.90
31619;DHT22;18230;51.502;7.108;2024-03-07T15:46:42;10.10;99.90
31619;DHT22;18230;51.502;7.108;2024-03-07T15:51:43;9.90;99.90
31619;DHT22;18230;51.502;7.108;2024-03-07T15:56:46;9.90;99.90
31619;DHT22;18230;51.502;7.108;2024-03-07T16:01:49;9.80;99.90
31619;DHT22;18230;51.502;7.108;2024-03-07T16:06:50;9.70;99.90
31619;DHT22;18230;51.502;7.108;2024-03-07T16:11:51;9.70;99.90
31619;DHT22;18230;51.502;7.108;2024-03-07T16:16:53;9.70;99.90
31619;DHT22;18230;51.502;7.108;2024-03-07T16:21:54;9.70;99.90
31619;DHT22;18230;51.502;7.108;2024-03-07T16:26:55;9.70;99.90
31619;DHT22;18230;51.502;7.108;2024-03-07T16:31:56;9.50;99.90
31619;DHT22;18230;51.502;7.108;2024-03-07T16:36:57;9.50;99.90
31619;DHT22;18230;51.502;7.108;2024-03-07T16:41:58;9.60;99.90
31619;DHT22;18230;51.502;7.108;2024-03-07T16:46:59;9.60;99.90
31619;DHT22;18230;51.502;7.108;2024-03-07T16:52:02;9.60;99.90
31619;DHT22;18230;51.502;7.108;2024-03-07T16:57:02;9.50;99.90
31619;DHT22;18230;51.502;7.108;2024-03-07T17:02:07;9.30;99.90
31619;DHT22;18230;51.502;7.108;2024-03-07T17:07:07;9.20;99.90
31619;DHT22;18230;51.502;7.108;2024-03-07T17:12:08;9.10;99.90
31619;DHT22;18230;51.502;7.108;2024-03-07T17:17:12;9.10;99.90
31619;DHT22;18230;51.502;7.108;2024-03-07T17:22:16;9.00;99.90
31619;DHT22;18230;51.502;7.108;2024-03-07T17:27:19;9.00;99.90
31619;DHT22;18230;51.502;7.108;2024-03-07T17:32:19;9.00;99.90
31619;DHT22;18230;51.502;7.108;2024-03-07T17:37:20;8.90;99.90
31619;DHT22;18230;51.502;7.108;2024-03-07T17:42:20;8.80;99.90
31619;DHT22;18230;51.502;7.108;2024-03-07T17:47:22;8.80;99.90
31619;DHT22;18230;51.502;7.108;2024-03-07T17:52:22;8.80;99.90
31619;DHT22;18230;51.502;7.108;2024-03-07T17:57:27;8.70;99.90
31619;DHT22;18230;51.502;7.108;2024-03-07T18:02:31;8.70;99.90
31619;DHT22;18230;51.502;7.108;2024-03-07T18:07:32;8.50;99.90
31619;DHT22;18230;51.502;7.108;2024-03-07T18:12:32;8.30;99.90
31619;DHT22;18230;51.502;7.108;2024-03-07T18:17:35;8.30;99.90
31619;DHT22;18230;51.502;7.108;2024-03-07T18:22:37;8.20;99.90
31619;DHT22;18230;51.502;7.108;2024-03-07T18:27:38;8.10;99.90
31619;DHT22;18230;51.502;7.108;2024-03-07T18:32:39;8.00;99.90
31619;DHT22;18230;51.502;7.108;2024-03-07T18:37:40;8.00;99.90
31619;DHT22;18230;51.502;7.108;2024-03-07T18:42:42;8.00;99.90
31619;DHT22;18230;51.502;7.108;2024-03-07T18:47:43;7.90;99.90
31619;DHT22;18230;51.502;7.108;2024-03-07T18:52:44;7.80;99.90
31619;DHT22;18230;51.502;7.108;2024-03-07T18:57:45;7.80;99.90
31619;DHT22;18230;51.502;7.108;2024-03-07T19:02:46;7.70;99.90
31619;DHT22;18230;51.502;7.108;2024-03-07T19:07:47;7.60;99.90
31619;DHT22;18230;51.502;7.108;2024-03-07T19:12:49;7.50;99.90
31619;DHT22;18230;51.502;7.108;2024-03-07T19:17:53;7.40;99.90
31619;DHT22;18230;51.502;7.108;2024-03-07T19:22:53;7.30;99.90
31619;DHT22;18230;51.502;7.108;2024-03-07T19:27:55;7.40;99.90
31619;DHT22;18230;51.502;7.108;2024-03-07T19:32:58;7.30;99.90
31619;DHT22;18230;51.502;7.108;2024-03-07T19:37:59;7.20;99.90
31619;DHT22;18230;51.502;7.108;2024-03-07T19:43:00;7.20;99.90
31619;DHT22;18230;51.502;7.108;2024-03-07T19:48:05;7.10;99.90
31619;DHT22;18230;51.502;7.108;2024-03-07T19:53:09;7.10;99.90
31619;DHT22;18230;51.502;7.108;2024-03-07T19:58:16;7.10;99.90
31619;DHT22;18230;51.502;7.108;2024-03-07T20:03:17;7.00;99.90
31619;DHT22;18230;51.502;7.108;2024-03-07T20:08:20;7.00;99.90
31619;DHT22;18230;51.502;7.108;2024-03-07T20:13:26;7.00;99.90
31619;DHT22;18230;51.502;7.108;2024-03-07T20:18:28;6.90;99.90
31619;DHT22;18230;51.502;7.108;2024-03-07T20:23:29;6.80;99.90
31619;DHT22;18230;51.502;7.108;2024-03-07T20:28:30;6.80;99.90
31619;DHT22;18230;51.502;7.108;2024-03-07T20:33:31;6.70;99.90
31619;DHT22;18230;51.502;7.108;2024-03-07T20:38:31;6.70;99.90
31619;DHT22;18230;51.502;7.108;2024-03-07T20:43:32;6.60;99.90
31619;DHT22;18230;51.502;7.108;2024-03-07T20:48:34;6.60;99.90
31619;DHT22;18230;51.502;7.108;2024-03-07T20:53:35;6.50;99.90
31619;DHT22;18230;51.502;7.108;2024-03-07T20:58:36;6.50;99.90
31619;DHT22;18230;51.502;7.108;2024-03-07T21:03:37;6.40;99.90
31619;DHT22;18230;51.502;7.108;2024-03-07T21:08:41;6.40;99.90
31619;DHT22;18230;51.502;7.108;2024-03-07T21:13:42;6.30;99.90
31619;DHT22;18230;51.502;7.108;2024-03-07T21:18:43;6.30;99.90
31619;DHT22;18230;51.502;7.108;2024-03-07T21:23:45;6.20;99.90
31619;DHT22;18230;51.502;7.108;2024-03-07T21:28:47;6.20;99.90
31619;DHT22;18230;51.502;7.108;2024-03-07T21:33:48;6.20;99.90
31619;DHT22;18230;51.502;7.108;2024-03-07T21:38:48;6.10;99.90
31619;DHT22;18230;51.502;7.108;2024-03-07T21:43:51;6.10;99.90
31619;DHT22;18230;51.502;7.108;2024-03-07T21:48:52;6.00;99.90
31619;DHT22;18230;51.502;7.108;2024-03-07T21:53:55;5.90;99.90
31619;DHT22;18230;51.502;7.108;2024-03-07T21:58:57;5.90;99.90
31619;DHT22;18230;51.502;7.108;2024-03-07T22:03:58;5.80;99.90
31619;DHT22;18230;51.502;7.108;2024-03-07T22:09:00;5.80;99.90
31619;DHT22;18230;51.502;7.108;2024-03-07T22:14:02;5.70;99.90
31619;DHT22;18230;51.502;7.108;2024-03-07T22:19:02;5.60;99.90
31619;DHT22;18230;51.502;7.108;2024-03-07T22:24:03;5.60;99.90
31619;DHT22;18230;51.502;7.108;2024-03-07T22:29:08;5.50;99.90
31619;DHT22;18230;51.502;7.108;2024-03-07T22:34:09;5.50;99.90
31619;DHT22;18230;51.502;7.108;2024-03-07T22:39:10;5.40;99.90
31619;DHT22;18230;51.502;7.108;2024-03-07T22:44:12;5.50;99.90
31619;DHT22;18230;51.502;7.108;2024-03-07T22:49:14;5.30;99.90
31619;DHT22;18230;51.502;7.108;2024-03-07T22:54:16;5.40;99.90
31619;DHT22;18230;51.502;7.108;2024-03-07T22:59:18;5.30;99.90
31619;DHT22;18230;51.502;7.108;2024-03-07T23:04:19;5.20;99.90
31619;DHT22;18230;51.502;7.108;2024-03-07T23:09:23;5.20;99.90
31619;DHT22;18230;51.502;7.108;2024-03-07T23:14:25;5.10;99.90
31619;DHT22;18230;51.502;7.108;2024-03-07T23:19:28;5.10;99.90
31619;DHT22;18230;51.502;7.108;2024-03-07T23:24:30;5.10;99.90
31619;DHT22;18230;51.502;7.108;2024-03-07T23:29:30;5.00;99.90
31619;DHT22;18230;51.502;7.108;2024-03-07T23:34:33;5.00;99.90
31619;DHT22;18230;51.502;7.108;2024-03-07T23:39:33;4.90;99.90
31619;DHT22;18230;51.502;7.108;2024-03-07T23:44:34;4.90;99.90
31619;DHT22;18230;51.502;7.108;2024-03-07T23:49:35;4.90;99.90
31619;DHT22;18230;51.502;7.108;2024-03-07T23:54:35;4.80;99.90
31619;DHT22;18230;51.502;7.108;2024-03-07T23:59:37;4.70;99.90
